createdAt,value
2018-07-19T04:00:37.064Z,983.79
2018-07-19T04:01:37.016Z,983.78
2018-07-19T04:02:36.989Z,983.82
2018-07-19T04:03:37.008Z,983.81
2018-07-19T04:04:36.981Z,983.81
2018-07-19T04:05:36.964Z,983.80
2018-07-19T04:06:36.951Z,983.86
2018-07-19T04:07:36.936Z,983.89
2018-07-19T04:08:36.929Z,983.89
2018-07-19T04:09:36.925Z,983.84
2018-07-19T04:10:36.901Z,983.91
2018-07-19T04:11:36.890Z,983.89
2018-07-19T04:12:36.877Z,983.91
2018-07-19T04:13:36.873Z,983.89
2018-07-19T04:14:36.876Z,983.91
2018-07-19T04:15:36.846Z,983.88
2018-07-19T04:16:36.846Z,983.87
2018-07-19T04:17:36.824Z,983.88
2018-07-19T04:18:36.812Z,983.89
2018-07-19T04:19:36.808Z,983.87
2018-07-19T04:20:36.804Z,983.90
2018-07-19T04:21:36.778Z,983.85
2018-07-19T04:22:36.766Z,983.90
2018-07-19T04:23:36.754Z,983.88
2018-07-19T04:24:36.762Z,983.89
2018-07-19T04:25:36.750Z,983.88
2018-07-19T04:26:36.720Z,983.88
2018-07-19T04:27:36.711Z,983.90
2018-07-19T04:28:36.701Z,983.87
2018-07-19T04:29:36.690Z,983.91
2018-07-19T04:30:36.691Z,983.92
2018-07-19T04:31:36.674Z,983.85
2018-07-19T04:32:36.662Z,983.90
2018-07-19T04:33:36.646Z,983.92
2018-07-19T04:34:36.657Z,983.92
2018-07-19T04:35:36.632Z,983.96
2018-07-19T04:36:36.621Z,983.96
2018-07-19T04:37:36.615Z,984.01
2018-07-19T04:38:36.589Z,984.00
2018-07-19T04:39:36.578Z,984.01
2018-07-19T04:40:36.603Z,984.03
2018-07-19T04:41:36.553Z,984.00
2018-07-19T04:42:36.544Z,984.00
2018-07-19T04:43:36.554Z,984.04
2018-07-19T04:44:36.520Z,984.01
2018-07-19T04:45:36.522Z,983.98
2018-07-19T04:46:36.505Z,983.99
2018-07-19T04:47:36.487Z,984.00
2018-07-19T04:48:36.483Z,984.00
2018-07-19T04:49:36.470Z,983.99
2018-07-19T04:50:36.472Z,983.99
2018-07-19T04:51:36.449Z,984.02
2018-07-19T04:52:36.434Z,984.00
2018-07-19T04:53:36.428Z,983.98
2018-07-19T04:54:36.420Z,983.96
2018-07-19T04:55:36.413Z,984.00
2018-07-19T04:56:36.386Z,983.97
2018-07-19T04:57:36.375Z,983.98
2018-07-19T04:58:36.367Z,983.95
2018-07-19T04:59:36.355Z,983.96
2018-07-19T05:00:36.358Z,983.99
2018-07-19T05:01:36.343Z,983.95
2018-07-19T05:02:36.322Z,983.98
2018-07-19T05:03:36.307Z,983.95
2018-07-19T05:04:36.300Z,983.97
2018-07-19T05:05:36.295Z,983.97
2018-07-19T05:06:36.277Z,983.94
2018-07-19T05:07:36.271Z,983.96
2018-07-19T05:08:36.256Z,983.94
2018-07-19T05:09:36.244Z,983.92
2018-07-19T05:10:36.691Z,983.88
2018-07-19T05:11:36.220Z,983.94
2018-07-19T05:12:36.220Z,983.91
2018-07-19T05:13:36.196Z,983.89
2018-07-19T05:14:36.189Z,983.88
2018-07-19T05:15:36.181Z,983.92
2018-07-19T05:16:36.189Z,983.89
2018-07-19T05:17:36.155Z,983.88
2018-07-19T05:18:36.173Z,983.91
2018-07-19T05:19:36.132Z,983.91
2018-07-19T05:20:36.124Z,983.88
2018-07-19T05:21:36.128Z,983.90
2018-07-19T05:22:36.098Z,983.93
2018-07-19T05:23:36.094Z,983.92
2018-07-19T05:24:36.074Z,983.90
2018-07-19T05:25:36.064Z,983.91
2018-07-19T05:26:36.073Z,983.90
2018-07-19T05:27:36.045Z,983.91
2018-07-19T05:28:36.040Z,983.87
2018-07-19T05:29:36.023Z,983.93
2018-07-19T05:30:36.017Z,983.90
2018-07-19T05:31:36.016Z,983.90
2018-07-19T05:32:35.993Z,983.92
2018-07-19T05:33:35.978Z,983.91
2018-07-19T05:34:35.993Z,983.89
2018-07-19T05:35:35.959Z,983.86
2018-07-19T05:36:35.954Z,983.83
2018-07-19T05:37:35.931Z,983.85
2018-07-19T05:38:35.934Z,983.85
2018-07-19T05:39:35.924Z,983.85
2018-07-19T05:40:35.967Z,983.81
2018-07-19T05:41:35.919Z,983.88
2018-07-19T05:42:35.877Z,983.87
2018-07-19T05:43:35.920Z,983.86
2018-07-19T05:44:35.858Z,983.83
2018-07-19T05:45:35.853Z,983.83
2018-07-19T05:46:35.845Z,983.86
2018-07-19T05:47:35.829Z,983.81
2018-07-19T05:48:35.809Z,983.84
2018-07-19T05:49:35.822Z,983.84
2018-07-19T05:50:35.791Z,983.81
2018-07-19T05:51:35.794Z,983.84
2018-07-19T05:52:35.762Z,983.84
2018-07-19T05:53:35.756Z,983.78
2018-07-19T05:54:35.744Z,983.76
2018-07-19T05:55:35.745Z,983.79
2018-07-19T05:56:35.738Z,983.77
2018-07-19T05:57:35.710Z,983.74
2018-07-19T05:58:35.698Z,983.76
2018-07-19T05:59:35.686Z,983.79
2018-07-19T06:00:35.677Z,983.78
2018-07-19T06:01:35.678Z,983.75
2018-07-19T06:02:35.660Z,983.73
2018-07-19T06:03:35.651Z,983.76
2018-07-19T06:04:35.635Z,983.76
2018-07-19T06:05:35.630Z,983.71
2018-07-19T06:06:35.624Z,983.70
2018-07-19T06:07:35.596Z,983.68
2018-07-19T06:08:35.590Z,983.60
2018-07-19T06:09:35.599Z,983.63
2018-07-19T06:10:35.565Z,983.67
2018-07-19T06:11:35.556Z,983.59
2018-07-19T06:12:35.560Z,983.64
2018-07-19T06:13:35.536Z,983.59
2018-07-19T06:14:35.518Z,983.59
2018-07-19T06:15:35.507Z,983.62
2018-07-19T06:16:35.498Z,983.58
2018-07-19T06:17:35.498Z,983.60
2018-07-19T06:18:35.494Z,983.62
2018-07-19T06:19:35.484Z,983.56
2018-07-19T06:20:35.456Z,983.55
2018-07-19T06:21:35.443Z,983.61
2018-07-19T06:22:35.456Z,983.59
2018-07-19T06:23:35.422Z,983.55
2018-07-19T06:24:35.409Z,983.57
2018-07-19T06:25:35.398Z,983.51
2018-07-19T06:26:35.398Z,983.56
2018-07-19T06:27:35.389Z,983.53
2018-07-19T06:28:35.366Z,983.52
2018-07-19T06:29:35.357Z,983.52
2018-07-19T06:30:35.343Z,983.57
2018-07-19T06:31:35.373Z,983.59
2018-07-19T06:32:35.335Z,983.58
2018-07-19T06:33:35.310Z,983.53
2018-07-19T06:34:35.296Z,983.54
2018-07-19T06:35:35.296Z,983.51
2018-07-19T06:36:35.274Z,983.49
2018-07-19T06:37:35.289Z,983.47
2018-07-19T06:38:35.256Z,983.48
2018-07-19T06:39:35.243Z,983.52
2018-07-19T06:40:35.230Z,983.52
2018-07-19T06:41:35.219Z,983.49
2018-07-19T06:42:35.208Z,983.50
2018-07-19T06:43:35.210Z,983.51
2018-07-19T06:44:35.189Z,983.53
2018-07-19T06:45:35.176Z,983.50
2018-07-19T06:46:35.166Z,983.54
2018-07-19T06:47:35.155Z,983.54
2018-07-19T06:48:35.158Z,983.53
2018-07-19T06:49:35.230Z,983.53
2018-07-19T06:50:35.125Z,983.54
2018-07-19T06:51:35.111Z,983.53
2018-07-19T06:52:35.116Z,983.55
2018-07-19T06:53:35.124Z,983.51
2018-07-19T06:54:35.082Z,983.52
2018-07-19T06:55:35.071Z,983.53
2018-07-19T06:56:35.055Z,983.50
2018-07-19T06:57:35.052Z,983.49
2018-07-19T06:58:35.049Z,983.54
2018-07-19T06:59:35.024Z,983.55
2018-07-19T07:00:35.020Z,983.56
2018-07-19T07:01:35.011Z,983.55
2018-07-19T07:02:34.988Z,983.56
2018-07-19T07:03:35.028Z,983.59
2018-07-19T07:04:34.970Z,983.58
2018-07-19T07:05:34.959Z,983.60
2018-07-19T07:06:34.945Z,983.59
2018-07-19T07:07:34.978Z,983.49
2018-07-19T07:08:34.935Z,983.49
2018-07-19T07:09:34.916Z,983.49
2018-07-19T07:10:34.908Z,983.49
2018-07-19T07:11:34.894Z,983.49
2018-07-19T07:12:34.881Z,983.49
2018-07-19T07:13:34.883Z,983.49
2018-07-19T07:14:34.858Z,983.46
2018-07-19T07:15:34.850Z,983.50
2018-07-19T07:16:34.836Z,983.48
2018-07-19T07:17:34.830Z,983.45
2018-07-19T07:18:34.836Z,983.43
2018-07-19T07:19:34.806Z,983.46
2018-07-19T07:20:34.794Z,983.43
2018-07-19T07:21:34.784Z,983.45
2018-07-19T07:22:34.773Z,983.40
2018-07-19T07:23:34.776Z,983.41
2018-07-19T07:24:34.754Z,983.40
2018-07-19T07:25:34.740Z,983.45
2018-07-19T07:26:34.725Z,983.46
2018-07-19T07:27:34.717Z,983.47
2018-07-19T07:28:34.720Z,983.47
2018-07-19T07:29:34.694Z,983.42
2018-07-19T07:30:34.687Z,983.43
2018-07-19T07:31:34.674Z,983.45
2018-07-19T07:32:34.661Z,983.43
2018-07-19T07:33:34.666Z,983.42
2018-07-19T07:34:34.640Z,983.41
2018-07-19T07:35:34.633Z,983.36
2018-07-19T07:36:34.620Z,983.37
2018-07-19T07:37:34.607Z,983.39
2018-07-19T07:38:34.631Z,983.38
2018-07-19T07:39:34.584Z,983.41
2018-07-19T07:40:34.577Z,983.41
2018-07-19T07:41:34.564Z,983.39
2018-07-19T07:42:34.554Z,983.43
2018-07-19T07:43:34.541Z,983.38
2018-07-19T07:44:34.545Z,983.39
2018-07-19T07:45:34.531Z,983.36
2018-07-19T07:46:34.514Z,983.38
2018-07-19T07:47:34.507Z,983.37
2018-07-19T07:48:34.490Z,983.39
2018-07-19T07:49:34.490Z,983.35
2018-07-19T07:50:34.469Z,983.34
2018-07-19T07:51:34.456Z,983.33
2018-07-19T07:52:34.445Z,983.39
2018-07-19T07:53:34.433Z,983.38
2018-07-19T07:54:34.499Z,983.31
2018-07-19T07:55:34.417Z,983.35
2018-07-19T07:56:34.406Z,983.33
2018-07-19T07:57:34.394Z,983.30
2018-07-19T07:58:34.382Z,983.27
2018-07-19T07:59:34.381Z,983.29
2018-07-19T08:00:34.437Z,983.29
2018-07-19T08:01:34.359Z,983.27
2018-07-19T08:02:34.337Z,983.28
2018-07-19T08:03:34.326Z,983.34
2018-07-19T08:04:34.330Z,983.35
2018-07-19T08:05:34.356Z,983.35
2018-07-19T08:06:34.297Z,983.38
2018-07-19T08:07:34.286Z,983.36
2018-07-19T08:08:34.273Z,983.29
2018-07-19T08:09:34.272Z,983.28
2018-07-19T08:10:34.251Z,983.35
2018-07-19T08:11:34.245Z,983.29
2018-07-19T08:12:34.235Z,983.25
2018-07-19T08:13:34.220Z,983.25
2018-07-19T08:14:34.219Z,983.23
2018-07-19T08:15:34.200Z,983.25
2018-07-19T08:16:34.188Z,983.23
2018-07-19T08:17:34.176Z,983.25
2018-07-19T08:18:34.165Z,983.24
2018-07-19T08:19:34.165Z,983.28
2018-07-19T08:20:34.143Z,983.24
2018-07-19T08:21:34.139Z,983.23
2018-07-19T08:22:34.122Z,983.25
2018-07-19T08:23:34.124Z,983.30
2018-07-19T08:24:34.117Z,983.28
2018-07-19T08:25:34.089Z,983.27
2018-07-19T08:26:34.083Z,983.22
2018-07-19T08:27:34.069Z,983.21
2018-07-19T08:28:34.060Z,983.16
2018-07-19T08:29:34.049Z,983.23
2018-07-19T08:30:34.049Z,983.22
2018-07-19T08:31:34.025Z,983.19
2018-07-19T08:32:34.026Z,983.17
2018-07-19T08:33:34.005Z,983.16
2018-07-19T08:34:33.991Z,983.16
2018-07-19T08:35:33.993Z,983.09
2018-07-19T08:36:33.973Z,983.15
2018-07-19T08:37:33.984Z,983.15
2018-07-19T08:38:33.952Z,983.18
2018-07-19T08:39:33.939Z,983.15
2018-07-19T08:40:33.941Z,983.23
2018-07-19T08:41:33.916Z,983.23
2018-07-19T08:42:33.910Z,983.18
2018-07-19T08:43:33.901Z,983.26
2018-07-19T08:44:33.887Z,983.19
2018-07-19T08:45:33.892Z,983.18
2018-07-19T08:46:33.861Z,983.24
2018-07-19T08:47:33.854Z,983.15
2018-07-19T08:48:33.842Z,983.20
2018-07-19T08:49:33.833Z,983.18
2018-07-19T08:50:33.837Z,983.15
2018-07-19T08:51:33.823Z,983.18
2018-07-19T08:52:33.800Z,983.18
2018-07-19T08:53:33.795Z,983.20
2018-07-19T08:54:33.776Z,983.18
2018-07-19T08:55:33.780Z,983.21
2018-07-19T08:56:33.814Z,983.20
2018-07-19T08:57:33.748Z,983.18
2018-07-19T08:58:33.740Z,983.23
2018-07-19T08:59:33.731Z,983.21
2018-07-19T09:00:33.731Z,983.25
2018-07-19T09:01:33.700Z,983.25
2018-07-19T09:02:33.692Z,983.19
2018-07-19T09:03:33.679Z,983.18
2018-07-19T09:04:33.668Z,983.24
2018-07-19T09:05:33.660Z,983.24
2018-07-19T09:06:33.661Z,983.21
2018-07-19T09:07:33.635Z,983.19
2018-07-19T09:08:33.626Z,983.23
2018-07-19T09:09:33.616Z,983.25
2018-07-19T09:10:33.616Z,983.27
2018-07-19T09:11:33.603Z,983.23
2018-07-19T09:12:33.581Z,983.21
2018-07-19T09:13:33.573Z,983.21
2018-07-19T09:14:33.564Z,983.19
2018-07-19T09:15:33.549Z,983.25
2018-07-19T09:16:33.549Z,983.22
2018-07-19T09:17:33.528Z,983.20
2018-07-19T09:18:33.518Z,983.24
2018-07-19T09:19:33.605Z,983.23
2018-07-19T09:20:33.499Z,983.17
2018-07-19T09:21:33.501Z,983.17
2018-07-19T09:22:33.477Z,983.16
2018-07-19T09:23:33.463Z,983.15
2018-07-19T09:24:33.453Z,983.16
2018-07-19T09:25:33.441Z,983.23
2018-07-19T09:26:33.447Z,983.18
2018-07-19T09:27:33.419Z,983.21
2018-07-19T09:28:33.407Z,983.21
2018-07-19T09:29:33.398Z,983.19
2018-07-19T09:30:33.390Z,983.19
2018-07-19T09:31:33.389Z,983.23
2018-07-19T09:32:33.396Z,983.19
2018-07-19T09:33:33.356Z,983.16
2018-07-19T09:34:33.348Z,983.18
2018-07-19T09:35:33.334Z,983.12
2018-07-19T09:36:33.337Z,983.12
2018-07-19T09:37:33.318Z,983.14
2018-07-19T09:38:33.373Z,983.10
2018-07-19T09:39:33.290Z,983.14
2018-07-19T09:40:33.282Z,983.18
2018-07-19T09:41:33.292Z,983.13
2018-07-19T09:42:33.260Z,983.15
2018-07-19T09:43:33.276Z,983.16
2018-07-19T09:44:33.236Z,983.16
2018-07-19T09:45:33.230Z,983.15
2018-07-19T09:46:33.233Z,983.14
2018-07-19T09:47:33.202Z,983.18
2018-07-19T09:48:33.198Z,983.14
2018-07-19T09:49:33.183Z,983.09
2018-07-19T09:50:33.206Z,983.08
2018-07-19T09:51:33.160Z,983.13
2018-07-19T09:52:33.161Z,983.16
2018-07-19T09:53:33.138Z,983.15
2018-07-19T09:54:33.164Z,983.19
2018-07-19T09:55:33.123Z,983.09
2018-07-19T09:56:33.108Z,983.12
2018-07-19T09:57:33.111Z,983.15
2018-07-19T09:58:33.093Z,983.16
2018-07-19T09:59:33.083Z,983.13
2018-07-19T10:00:33.070Z,983.17
2018-07-19T10:01:33.058Z,983.14
2018-07-19T10:02:33.057Z,983.17
2018-07-19T10:03:33.032Z,983.19
2018-07-19T10:04:33.024Z,983.20
2018-07-19T10:05:33.015Z,983.11
2018-07-19T10:06:32.999Z,983.16
2018-07-19T10:07:32.999Z,983.17
2018-07-19T10:08:32.979Z,983.18
2018-07-19T10:09:32.964Z,983.13
2018-07-19T10:10:32.956Z,983.12
2018-07-19T10:11:32.945Z,983.19
2018-07-19T10:12:32.946Z,983.11
2018-07-19T10:13:33.006Z,983.10
2018-07-19T10:14:32.928Z,983.07
2018-07-19T10:15:32.958Z,983.05
2018-07-19T10:16:32.893Z,983.13
2018-07-19T10:17:32.893Z,983.09
2018-07-19T10:18:32.870Z,983.10
2018-07-19T10:19:32.862Z,983.15
2018-07-19T10:20:32.904Z,983.09
2018-07-19T10:21:32.904Z,983.09
2018-07-19T10:22:32.838Z,983.05
2018-07-19T10:23:32.874Z,983.03
2018-07-19T10:24:32.804Z,982.95
2018-07-19T10:25:32.795Z,982.97
2018-07-19T10:26:32.794Z,983.00
2018-07-19T10:27:32.807Z,983.04
2018-07-19T10:28:32.767Z,982.98
2018-07-19T10:29:32.765Z,983.00
2018-07-19T10:30:32.739Z,983.01
2018-07-19T10:31:32.728Z,983.06
2018-07-19T10:32:32.834Z,982.98
2018-07-19T10:33:32.719Z,983.01
2018-07-19T10:34:32.696Z,982.97
2018-07-19T10:35:32.688Z,982.93
2018-07-19T10:36:32.678Z,982.89
2018-07-19T10:37:32.698Z,982.90
2018-07-19T10:38:32.663Z,982.85
2018-07-19T10:39:32.645Z,982.85
2018-07-19T10:40:32.684Z,982.89
2018-07-19T10:41:32.621Z,982.96
2018-07-19T10:42:32.610Z,982.94
2018-07-19T10:43:32.611Z,982.97
2018-07-19T10:44:32.593Z,982.95
2018-07-19T10:45:32.580Z,982.90
2018-07-19T10:46:32.568Z,982.89
2018-07-19T10:47:32.564Z,982.87
2018-07-19T10:48:32.562Z,982.90
2018-07-19T10:49:32.535Z,982.89
2018-07-19T10:50:32.528Z,982.91
2018-07-19T10:51:32.520Z,982.86
2018-07-19T10:52:32.512Z,982.88
2018-07-19T10:53:32.510Z,982.88
2018-07-19T10:54:32.483Z,982.93
2018-07-19T10:55:32.470Z,982.85
2018-07-19T10:56:32.459Z,982.92
2018-07-19T10:57:32.554Z,982.91
2018-07-19T10:58:32.445Z,982.94
2018-07-19T10:59:32.443Z,982.90
2018-07-19T11:00:32.420Z,982.85
2018-07-19T11:01:32.436Z,982.87
2018-07-19T11:02:32.418Z,982.83
2018-07-19T11:03:32.387Z,982.83
2018-07-19T11:04:32.386Z,982.87
2018-07-19T11:05:32.363Z,982.92
2018-07-19T11:06:32.357Z,982.95
2018-07-19T11:07:32.347Z,982.93
2018-07-19T11:08:32.365Z,982.89
2018-07-19T11:09:32.416Z,982.93
2018-07-19T11:10:32.309Z,982.88
2018-07-19T11:11:32.298Z,982.91
2018-07-19T11:12:32.290Z,982.89
2018-07-19T11:13:32.277Z,982.86
2018-07-19T11:14:32.289Z,982.86
2018-07-19T11:15:32.256Z,982.85
2018-07-19T11:16:32.299Z,982.91
2018-07-19T11:17:32.239Z,982.88
2018-07-19T11:18:32.226Z,982.89
2018-07-19T11:19:32.223Z,982.83
2018-07-19T11:20:32.203Z,982.86
2018-07-19T11:21:32.248Z,982.86
2018-07-19T11:22:32.195Z,982.85
2018-07-19T11:23:32.168Z,982.86
2018-07-19T11:24:32.191Z,982.83
2018-07-19T11:25:32.146Z,982.73
2018-07-19T11:26:32.135Z,982.75
2018-07-19T11:27:32.128Z,982.76
2018-07-19T11:28:32.121Z,982.73
2018-07-19T11:29:32.107Z,982.74
2018-07-19T11:30:32.105Z,982.73
2018-07-19T11:31:32.082Z,982.71
2018-07-19T11:32:32.073Z,982.69
2018-07-19T11:33:32.064Z,982.72
2018-07-19T11:34:32.049Z,982.69
2018-07-19T11:35:32.052Z,982.69
2018-07-19T11:36:32.036Z,982.69
2018-07-19T11:37:32.021Z,982.67
2018-07-19T11:38:32.008Z,982.65
2018-07-19T11:39:32.003Z,982.64
2018-07-19T11:40:31.995Z,982.66
2018-07-19T11:41:32.022Z,982.61
2018-07-19T11:42:31.967Z,982.61
2018-07-19T11:43:31.951Z,982.60
2018-07-19T11:44:31.943Z,982.53
2018-07-19T11:45:31.958Z,982.56
2018-07-19T11:46:31.921Z,982.57
2018-07-19T11:47:32.573Z,982.57
2018-07-19T11:48:31.899Z,982.53
2018-07-19T11:49:31.891Z,982.55
2018-07-19T11:50:31.894Z,982.54
2018-07-19T11:51:31.866Z,982.53
2018-07-19T11:52:31.857Z,982.52
2018-07-19T11:53:31.844Z,982.50
2018-07-19T11:54:31.835Z,982.51
2018-07-19T11:55:31.834Z,982.50
2018-07-19T11:56:31.828Z,982.50
2018-07-19T11:57:31.804Z,982.46
2018-07-19T11:58:31.795Z,982.44
2018-07-19T11:59:31.782Z,982.44
2018-07-19T12:00:31.769Z,982.46
2018-07-19T12:01:31.770Z,982.42
2018-07-19T12:02:31.749Z,982.42
2018-07-19T12:03:31.737Z,982.42
2018-07-19T12:04:31.726Z,982.42
2018-07-19T12:05:31.715Z,982.42
2018-07-19T12:06:31.715Z,982.45
2018-07-19T12:07:31.696Z,982.45
2018-07-19T12:08:31.683Z,982.40
2018-07-19T12:09:31.672Z,982.39
2018-07-19T12:10:31.663Z,982.41
2018-07-19T12:11:31.667Z,982.37
2018-07-19T12:12:31.638Z,982.39
2018-07-19T12:13:31.634Z,982.37
2018-07-19T12:14:31.624Z,982.32
2018-07-19T12:15:31.607Z,982.32
2018-07-19T12:16:31.608Z,982.34
2018-07-19T12:17:31.586Z,982.35
2018-07-19T12:18:31.574Z,982.29
2018-07-19T12:19:31.569Z,982.34
2018-07-19T12:20:31.553Z,982.30
2018-07-19T12:21:31.555Z,982.30
2018-07-19T12:22:31.533Z,982.33
2018-07-19T12:23:31.519Z,982.28
2018-07-19T12:24:31.510Z,982.28
2018-07-19T12:25:31.499Z,982.28
2018-07-19T12:26:31.502Z,982.28
2018-07-19T12:27:31.481Z,982.25
2018-07-19T12:28:31.476Z,982.23
2018-07-19T12:29:31.457Z,982.19
2018-07-19T12:30:31.444Z,982.18
2018-07-19T12:31:31.455Z,982.23
2018-07-19T12:32:31.423Z,982.26
2018-07-19T12:33:31.424Z,982.24
2018-07-19T12:34:31.407Z,982.16
2018-07-19T12:35:31.392Z,982.15
2018-07-19T12:36:31.381Z,982.19
2018-07-19T12:37:31.431Z,982.20
2018-07-19T12:38:31.368Z,982.20
2018-07-19T12:39:31.358Z,982.17
2018-07-19T12:40:31.337Z,982.17
2018-07-19T12:41:31.337Z,982.19
2018-07-19T12:42:31.372Z,982.16
2018-07-19T12:43:31.319Z,982.18
2018-07-19T12:44:31.323Z,982.17
2018-07-19T12:45:31.296Z,982.16
2018-07-19T12:46:31.281Z,982.15
2018-07-19T12:47:31.287Z,982.17
2018-07-19T12:48:31.262Z,982.20
2018-07-19T12:49:31.250Z,982.16
2018-07-19T12:50:31.252Z,982.16
2018-07-19T12:51:31.222Z,982.16
2018-07-19T12:52:31.240Z,982.18
2018-07-19T12:53:31.215Z,982.17
2018-07-19T12:54:31.194Z,982.13
2018-07-19T12:55:31.185Z,982.12
2018-07-19T12:56:31.175Z,982.12
2018-07-19T12:57:31.165Z,982.14
2018-07-19T12:58:31.176Z,982.14
2018-07-19T12:59:31.146Z,982.13
2018-07-19T13:00:31.134Z,982.12
2018-07-19T13:01:31.116Z,982.13
2018-07-19T13:02:31.115Z,982.15
2018-07-19T13:03:31.116Z,982.15
2018-07-19T13:04:31.085Z,982.20
2018-07-19T13:05:31.078Z,982.15
2018-07-19T13:06:31.073Z,982.16
2018-07-19T13:07:31.056Z,982.17
2018-07-19T13:08:31.060Z,982.13
2018-07-19T13:09:31.036Z,982.11
2018-07-19T13:10:31.021Z,982.11
2018-07-19T13:11:31.009Z,982.06
2018-07-19T13:12:30.999Z,982.12
2018-07-19T13:13:31.030Z,982.06
2018-07-19T13:14:31.012Z,982.08
2018-07-19T13:15:30.975Z,982.07
2018-07-19T13:16:30.970Z,982.06
2018-07-19T13:17:30.946Z,982.10
2018-07-19T13:18:30.934Z,982.04
2018-07-19T13:19:30.944Z,982.05
2018-07-19T13:20:30.913Z,982.05
2018-07-19T13:21:30.905Z,982.06
2018-07-19T13:22:30.894Z,982.01
2018-07-19T13:23:30.884Z,982.02
2018-07-19T13:24:30.889Z,982.00
2018-07-19T13:25:30.865Z,982.01
2018-07-19T13:26:30.855Z,981.98
2018-07-19T13:27:30.841Z,982.02
2018-07-19T13:28:30.851Z,982.07
2018-07-19T13:29:30.843Z,982.00
2018-07-19T13:30:30.815Z,982.01
2018-07-19T13:31:30.792Z,981.99
2018-07-19T13:32:30.784Z,982.02
2018-07-19T13:33:30.776Z,982.04
2018-07-19T13:34:30.795Z,982.03
2018-07-19T13:35:30.751Z,982.06
2018-07-19T13:36:30.757Z,982.02
2018-07-19T13:37:30.731Z,982.03
2018-07-19T13:38:30.719Z,982.01
2018-07-19T13:39:30.732Z,981.93
2018-07-19T13:40:30.700Z,981.93
2018-07-19T13:41:30.687Z,981.91
2018-07-19T13:42:30.676Z,981.90
2018-07-19T13:43:30.668Z,981.92
2018-07-19T13:44:30.668Z,981.91
2018-07-19T13:45:30.646Z,981.86
2018-07-19T13:46:30.630Z,981.84
2018-07-19T13:47:30.626Z,981.85
2018-07-19T13:48:30.652Z,981.84
2018-07-19T13:49:30.648Z,981.87
2018-07-19T13:50:30.590Z,981.90
2018-07-19T13:51:30.579Z,981.82
2018-07-19T13:52:30.570Z,981.83
2018-07-19T13:53:30.566Z,981.79
2018-07-19T13:54:30.549Z,981.85
2018-07-19T13:55:30.555Z,981.82
2018-07-19T13:56:30.527Z,981.84
2018-07-19T13:57:30.514Z,981.83
2018-07-19T13:58:30.515Z,981.79
2018-07-19T13:59:30.502Z,981.76
2018-07-19T14:00:30.509Z,981.81
2018-07-19T14:01:30.473Z,981.76
2018-07-19T14:02:30.463Z,981.78
2018-07-19T14:03:30.467Z,981.74
2018-07-19T14:04:30.442Z,981.73
2018-07-19T14:05:30.448Z,981.74
2018-07-19T14:06:30.417Z,981.77
2018-07-19T14:07:30.410Z,981.73
2018-07-19T14:08:30.401Z,981.73
2018-07-19T14:09:30.386Z,981.75
2018-07-19T14:10:30.391Z,981.72
2018-07-19T14:11:30.363Z,981.70
2018-07-19T14:12:30.356Z,981.70
2018-07-19T14:13:30.345Z,981.67
2018-07-19T14:14:30.371Z,981.68
2018-07-19T14:15:30.342Z,981.65
2018-07-19T14:16:30.335Z,981.67
2018-07-19T14:17:30.300Z,981.68
2018-07-19T14:18:30.288Z,981.64
2018-07-19T14:19:30.281Z,981.70
2018-07-19T14:20:30.305Z,981.67
2018-07-19T14:21:30.258Z,981.63
2018-07-19T14:22:30.243Z,981.62
2018-07-19T14:23:30.235Z,981.59
2018-07-19T14:24:30.225Z,981.59
2018-07-19T14:25:30.241Z,981.59
2018-07-19T14:26:30.205Z,981.65
2018-07-19T14:27:30.190Z,981.58
2018-07-19T14:28:30.186Z,981.59
2018-07-19T14:29:30.170Z,981.55
2018-07-19T14:30:30.159Z,981.55
2018-07-19T14:31:30.179Z,981.52
2018-07-19T14:32:30.145Z,981.45
2018-07-19T14:33:30.134Z,981.49
2018-07-19T14:34:30.118Z,981.51
2018-07-19T14:35:30.105Z,981.54
2018-07-19T14:36:30.115Z,981.53
2018-07-19T14:37:30.083Z,981.51
2018-07-19T14:38:30.081Z,981.52
2018-07-19T14:39:30.063Z,981.46
2018-07-19T14:40:30.053Z,981.46
2018-07-19T14:41:30.089Z,981.42
2018-07-19T14:42:30.031Z,981.40
2018-07-19T14:43:30.022Z,981.44
2018-07-19T14:44:30.009Z,981.40
2018-07-19T14:45:29.996Z,981.43
2018-07-19T14:46:29.990Z,981.46
2018-07-19T14:47:29.997Z,981.45
2018-07-19T14:48:29.974Z,981.45
2018-07-19T14:49:29.954Z,981.46
2018-07-19T14:50:29.952Z,981.44
2018-07-19T14:51:29.932Z,981.44
2018-07-19T14:52:29.939Z,981.43
2018-07-19T14:53:29.918Z,981.41
2018-07-19T14:54:29.899Z,981.38
2018-07-19T14:55:29.891Z,981.39
2018-07-19T14:56:29.879Z,981.38
2018-07-19T14:57:29.883Z,981.37
2018-07-19T14:58:29.857Z,981.45
2018-07-19T14:59:29.855Z,981.40
2018-07-19T15:00:29.844Z,981.38
2018-07-19T15:01:29.824Z,981.36
2018-07-19T15:02:29.841Z,981.32
2018-07-19T15:03:29.803Z,981.33
2018-07-19T15:04:29.792Z,981.25
2018-07-19T15:05:29.784Z,981.25
2018-07-19T15:06:29.772Z,981.20
2018-07-19T15:07:29.789Z,981.26
2018-07-19T15:08:29.754Z,981.23
2018-07-19T15:09:29.735Z,981.23
2018-07-19T15:10:29.729Z,981.21
2018-07-19T15:11:29.720Z,981.23
2018-07-19T15:12:29.733Z,981.20
2018-07-19T15:13:29.703Z,981.15
2018-07-19T15:14:29.703Z,981.17
2018-07-19T15:15:29.692Z,981.14
2018-07-19T15:16:29.658Z,981.12
2018-07-19T15:17:29.650Z,981.13
2018-07-19T15:18:29.657Z,981.08
2018-07-19T15:19:29.631Z,981.11
2018-07-19T15:20:29.616Z,981.14
2018-07-19T15:21:29.609Z,981.11
2018-07-19T15:22:29.598Z,981.06
2018-07-19T15:23:29.615Z,981.09
2018-07-19T15:24:29.583Z,981.07
2018-07-19T15:25:29.559Z,981.08
2018-07-19T15:26:29.555Z,981.15
2018-07-19T15:27:29.545Z,981.08
2018-07-19T15:28:29.556Z,981.09
2018-07-19T15:29:29.576Z,981.10
2018-07-19T15:30:29.512Z,981.07
2018-07-19T15:31:29.533Z,981.08
2018-07-19T15:32:29.488Z,981.05
2018-07-19T15:33:29.498Z,981.04
2018-07-19T15:34:29.468Z,981.07
2018-07-19T15:35:29.465Z,981.06
2018-07-19T15:36:29.443Z,981.04
2018-07-19T15:37:29.436Z,980.98
2018-07-19T15:38:29.447Z,980.99
2018-07-19T15:39:29.433Z,980.98
2018-07-19T15:40:29.410Z,980.96
2018-07-19T15:41:29.390Z,980.95
2018-07-19T15:42:29.385Z,980.95
2018-07-19T15:43:29.413Z,980.99
2018-07-19T15:44:29.367Z,980.98
2018-07-19T15:45:29.357Z,980.97
2018-07-19T15:46:29.340Z,980.97
2018-07-19T15:47:29.326Z,980.90
2018-07-19T15:48:29.336Z,980.91
2018-07-19T15:49:29.329Z,980.91
2018-07-19T15:50:29.297Z,980.95
2018-07-19T15:51:29.287Z,980.90
2018-07-19T15:52:29.276Z,980.89
2018-07-19T15:53:29.265Z,980.87
2018-07-19T15:54:29.267Z,980.90
2018-07-19T15:55:29.257Z,980.86
2018-07-19T15:56:29.229Z,980.93
2018-07-19T15:57:29.236Z,980.88
2018-07-19T15:58:29.208Z,980.87
2018-07-19T15:59:29.222Z,980.86
2018-07-19T16:00:29.190Z,980.84
2018-07-19T16:01:29.185Z,980.84
2018-07-19T16:02:29.167Z,980.86
2018-07-19T16:03:29.157Z,980.88
2018-07-19T16:04:29.165Z,980.91
2018-07-19T16:05:29.137Z,980.83
2018-07-19T16:06:29.122Z,980.86
2018-07-19T16:07:29.117Z,980.88
2018-07-19T16:08:29.103Z,980.85
2018-07-19T16:09:29.121Z,980.82
2018-07-19T16:10:29.082Z,980.83
2018-07-19T16:11:29.076Z,980.81
2018-07-19T16:12:29.066Z,980.85
2018-07-19T16:13:29.045Z,980.81
2018-07-19T16:14:29.044Z,980.81
2018-07-19T16:15:29.050Z,980.76
2018-07-19T16:16:29.012Z,980.82
2018-07-19T16:17:29.004Z,980.81
2018-07-19T16:18:28.994Z,980.82
2018-07-19T16:19:28.981Z,980.79
2018-07-19T16:20:28.991Z,980.77
2018-07-19T16:21:28.963Z,980.79
2018-07-19T16:22:28.960Z,980.78
2018-07-19T16:23:28.936Z,980.77
2018-07-19T16:24:28.930Z,980.74
2018-07-19T16:25:28.940Z,980.77
2018-07-19T16:26:28.912Z,980.78
2018-07-19T16:27:28.892Z,980.76
2018-07-19T16:28:28.889Z,980.79